createdAt,value
2018-09-24T00:00:02.282Z,100118.00
2018-09-24T00:02:30.427Z,100122.00
2018-09-24T00:04:58.568Z,100124.00
2018-09-24T00:07:26.638Z,100131.00
2018-09-24T00:09:54.940Z,100143.00
2018-09-24T00:12:23.108Z,100140.00
2018-09-24T00:14:51.438Z,100145.00
2018-09-24T00:17:19.615Z,100156.00
2018-09-24T00:19:47.714Z,100165.00
2018-09-24T00:22:15.878Z,100176.00
2018-09-24T00:24:43.935Z,100189.00
2018-09-24T00:27:12.500Z,100198.00
2018-09-24T00:29:40.591Z,100203.00
2018-09-24T00:32:08.698Z,100210.00
2018-09-24T00:34:36.853Z,100212.00
2018-09-24T00:37:05.127Z,100217.00
2018-09-24T00:39:33.181Z,100221.00
2018-09-24T00:42:01.420Z,100231.00
2018-09-24T00:44:29.662Z,100237.00
2018-09-24T00:46:57.877Z,100244.00
2018-09-24T00:49:26.060Z,100248.00
2018-09-24T00:51:54.198Z,100251.00
2018-09-24T00:54:22.363Z,100265.00
2018-09-24T00:56:51.195Z,100273.00
2018-09-24T00:59:19.374Z,100269.00
2018-09-24T01:01:47.458Z,100272.00
2018-09-24T01:04:15.557Z,100275.00
2018-09-24T01:06:43.750Z,100286.00
2018-09-24T01:09:12.323Z,100289.00
2018-09-24T01:11:40.586Z,100296.00
2018-09-24T01:14:08.950Z,100300.00
2018-09-24T01:16:37.127Z,100308.00
2018-09-24T01:19:05.286Z,100308.00
2018-09-24T01:21:33.363Z,100311.00
2018-09-24T01:24:01.538Z,100314.00
2018-09-24T01:26:29.680Z,100315.00
2018-09-24T01:28:57.942Z,100322.00
2018-09-24T01:31:26.182Z,100326.00
2018-09-24T01:33:54.349Z,100329.00
2018-09-24T01:36:22.463Z,100333.00
2018-09-24T01:38:51.226Z,100332.00
2018-09-24T01:41:19.286Z,100335.00
2018-09-24T01:43:47.339Z,100332.00
2018-09-24T01:46:15.390Z,100334.00
2018-09-24T01:48:43.470Z,100340.00
2018-09-24T01:51:11.619Z,100340.00
2018-09-24T01:53:39.794Z,100339.00
2018-09-24T01:56:07.974Z,100349.00
2018-09-24T01:58:37.861Z,100354.00
2018-09-24T02:01:07.101Z,100362.00
2018-09-24T02:03:35.515Z,100361.00
2018-09-24T02:06:04.797Z,100361.00
2018-09-24T02:08:41.269Z,100362.00
2018-09-24T02:11:09.664Z,100366.00
2018-09-24T02:13:45.470Z,100367.00
2018-09-24T02:16:13.682Z,100371.00
2018-09-24T02:18:42.511Z,100373.00
2018-09-24T02:21:11.436Z,100370.00
2018-09-24T02:23:39.777Z,100378.00
2018-09-24T02:26:08.388Z,100386.00
2018-09-24T02:28:36.504Z,100382.00
2018-09-24T02:31:04.554Z,100386.00
2018-09-24T02:33:32.821Z,100390.00
2018-09-24T02:36:01.003Z,100396.00
2018-09-24T02:38:29.905Z,100403.00
2018-09-24T02:40:58.005Z,100366.00
2018-09-24T02:43:26.187Z,100404.00
2018-09-24T02:45:55.324Z,100401.00
2018-09-24T02:48:24.602Z,100406.00
2018-09-24T02:50:52.830Z,100404.00
2018-09-24T02:53:21.141Z,100408.00
2018-09-24T02:55:49.347Z,100416.00
2018-09-24T02:58:19.376Z,100423.00
2018-09-24T03:00:47.706Z,100428.00
2018-09-24T03:03:15.973Z,100433.00
2018-09-24T03:05:44.358Z,100437.00
2018-09-24T03:08:13.497Z,100438.00
2018-09-24T03:10:41.816Z,100444.00
2018-09-24T03:13:10.059Z,100451.00
2018-09-24T03:15:40.793Z,100453.00
2018-09-24T03:18:09.847Z,100457.00
2018-09-24T03:20:40.011Z,100462.00
2018-09-24T03:23:08.500Z,100472.00
2018-09-24T03:25:37.061Z,100470.00
2018-09-24T03:28:05.342Z,100472.00
2018-09-24T03:30:40.032Z,100473.00
2018-09-24T03:33:08.111Z,100484.00
2018-09-24T03:35:36.298Z,100487.00
2018-09-24T03:38:04.520Z,100486.00
2018-09-24T03:40:32.664Z,100497.00
2018-09-24T03:43:00.853Z,100502.00
2018-09-24T03:45:29.617Z,100507.00
2018-09-24T03:47:57.940Z,100515.00
2018-09-24T03:50:26.053Z,100516.00
2018-09-24T03:52:54.708Z,100515.00
2018-09-24T03:55:28.160Z,100515.00
2018-09-24T03:57:56.359Z,100518.00
2018-09-24T04:00:24.634Z,100514.00
2018-09-24T04:02:52.789Z,100518.00
2018-09-24T04:05:26.664Z,100518.00
2018-09-24T04:08:00.398Z,100521.00
2018-09-24T04:10:34.114Z,100521.00
2018-09-24T04:13:07.904Z,100525.00
2018-09-24T04:15:41.703Z,100525.00
2018-09-24T04:18:16.062Z,100528.00
2018-09-24T04:20:49.631Z,100523.00
2018-09-24T04:23:23.402Z,100529.00
2018-09-24T04:25:57.116Z,100525.00
2018-09-24T04:28:30.892Z,100529.00
2018-09-24T04:31:05.065Z,100536.00
2018-09-24T04:33:38.883Z,100537.00
2018-09-24T04:36:12.774Z,100536.00
2018-09-24T04:38:46.554Z,100536.00
2018-09-24T04:41:20.307Z,100541.00
2018-09-24T04:43:54.003Z,100540.00
2018-09-24T04:46:27.796Z,100538.00
2018-09-24T04:49:01.661Z,100541.00
2018-09-24T04:51:35.325Z,100543.00
2018-09-24T04:54:09.756Z,100544.00
2018-09-24T04:56:43.494Z,100550.00
2018-09-24T04:59:17.249Z,100555.00
2018-09-24T05:01:50.932Z,100566.00
2018-09-24T05:04:24.870Z,100570.00
2018-09-24T05:06:58.589Z,100578.00
2018-09-24T05:09:32.542Z,100578.00
2018-09-24T05:12:06.181Z,100578.00
2018-09-24T05:14:39.970Z,100589.00
2018-09-24T05:17:14.849Z,100580.00
2018-09-24T05:19:48.387Z,100580.00
2018-09-24T05:22:22.184Z,100583.00
2018-09-24T05:24:57.159Z,100583.00
2018-09-24T05:27:31.158Z,100585.00
2018-09-24T05:30:05.371Z,100593.00
2018-09-24T05:32:39.095Z,100599.00
2018-09-24T05:35:12.814Z,100604.00
2018-09-24T05:37:46.550Z,100608.00
2018-09-24T05:40:20.301Z,100616.00
2018-09-24T05:42:54.089Z,100613.00
2018-09-24T05:45:27.805Z,100616.00
2018-09-24T05:48:02.707Z,100621.00
2018-09-24T05:50:36.472Z,100627.00
2018-09-24T05:53:10.298Z,100637.00
2018-09-24T05:55:44.053Z,100646.00
2018-09-24T05:58:18.001Z,100652.00
2018-09-24T06:00:51.847Z,100657.00
2018-09-24T06:03:25.674Z,100659.00
2018-09-24T06:05:59.484Z,100661.00
2018-09-24T06:08:33.987Z,100671.00
2018-09-24T06:11:07.562Z,100669.00
2018-09-24T06:13:41.219Z,100670.00
2018-09-24T06:16:15.212Z,100679.00
2018-09-24T06:18:48.993Z,100688.00
2018-09-24T06:21:22.898Z,100694.00
2018-09-24T06:23:56.748Z,100700.00
2018-09-24T06:26:30.471Z,100708.00
2018-09-24T06:29:04.165Z,100708.00
2018-09-24T06:31:37.972Z,100708.00
2018-09-24T06:34:11.828Z,100713.00
2018-09-24T06:36:45.459Z,100711.00
2018-09-24T06:39:19.060Z,100717.00
2018-09-24T06:41:52.863Z,100716.00
2018-09-24T06:44:27.383Z,100718.00
2018-09-24T06:47:01.105Z,100715.00
2018-09-24T06:49:34.903Z,100728.00
2018-09-24T06:52:08.703Z,100729.00
2018-09-24T06:54:42.563Z,100727.00
2018-09-24T06:57:16.230Z,100737.00
2018-09-24T06:59:50.204Z,100742.00
2018-09-24T07:02:23.967Z,100743.00
2018-09-24T07:04:57.685Z,100749.00
2018-09-24T07:07:31.508Z,100756.00
2018-09-24T07:10:05.251Z,100760.00
2018-09-24T07:12:39.053Z,100774.00
2018-09-24T07:15:12.762Z,100782.00
2018-09-24T07:17:46.482Z,100816.00
2018-09-24T07:20:20.204Z,100805.00
2018-09-24T07:22:54.033Z,100807.00
2018-09-24T07:25:27.836Z,100801.00
2018-09-24T07:28:02.467Z,100804.00
2018-09-24T07:30:35.983Z,100808.00
2018-09-24T07:33:09.881Z,100807.00
2018-09-24T07:35:43.596Z,100802.00
2018-09-24T07:38:17.351Z,100801.00
2018-09-24T07:40:51.193Z,100793.00
2018-09-24T07:43:25.183Z,100798.00
2018-09-24T07:45:59.010Z,100797.00
2018-09-24T07:48:39.733Z,100797.00
2018-09-24T07:51:13.550Z,100808.00
2018-09-24T07:53:47.305Z,100812.00
2018-09-24T07:56:21.194Z,100809.00
2018-09-24T07:58:54.962Z,100815.00
2018-09-24T08:01:28.716Z,100822.00
2018-09-24T08:04:02.293Z,100829.00
2018-09-24T08:06:36.067Z,100826.00
2018-09-24T08:09:11.808Z,100829.00
2018-09-24T08:11:45.730Z,100843.00
2018-09-24T08:14:19.808Z,100846.00
2018-09-24T08:16:53.609Z,100791.00
2018-09-24T08:19:27.433Z,100848.00
2018-09-24T08:22:01.225Z,100848.00
2018-09-24T08:24:35.117Z,100852.00
2018-09-24T08:27:08.823Z,100848.00
2018-09-24T08:29:42.597Z,100857.00
2018-09-24T08:32:16.375Z,100855.00
2018-09-24T08:34:50.136Z,100857.00
2018-09-24T08:37:23.847Z,100856.00
2018-09-24T08:39:57.682Z,100863.00
2018-09-24T08:42:31.387Z,100869.00
2018-09-24T08:45:04.903Z,100865.00
2018-09-24T08:47:38.589Z,100821.00
2018-09-24T08:50:12.491Z,100897.00
2018-09-24T08:52:46.396Z,100867.00
2018-09-24T08:55:20.210Z,100837.00
2018-09-24T08:57:54.479Z,100891.00
2018-09-24T09:00:28.232Z,100854.00
2018-09-24T09:03:01.999Z,100854.00
2018-09-24T09:05:35.887Z,100850.00
2018-09-24T09:08:09.694Z,100863.00
2018-09-24T09:10:43.301Z,100887.00
2018-09-24T09:13:17.247Z,100931.00
2018-09-24T09:15:51.085Z,100879.00
2018-09-24T09:18:24.802Z,100874.00
2018-09-24T09:20:58.340Z,100879.00
2018-09-24T09:23:32.063Z,100877.00
2018-09-24T09:26:05.780Z,100882.00
2018-09-24T09:28:39.571Z,100887.00
2018-09-24T09:31:13.291Z,100891.00
2018-09-24T09:33:47.154Z,100904.00
2018-09-24T09:36:20.965Z,100902.00
2018-09-24T09:38:54.711Z,100911.00
2018-09-24T09:41:28.564Z,100909.00
2018-09-24T09:44:02.324Z,100916.00
2018-09-24T09:46:36.095Z,100915.00
2018-09-24T09:49:09.766Z,100920.00
2018-09-24T09:51:43.562Z,100917.00
2018-09-24T09:54:17.402Z,100919.00
2018-09-24T09:56:51.254Z,100931.00
2018-09-24T09:59:25.104Z,100923.00
2018-09-24T10:01:58.825Z,100909.00
2018-09-24T10:04:33.293Z,100921.00
2018-09-24T10:07:07.209Z,100919.00
2018-09-24T10:09:40.954Z,100916.00
2018-09-24T10:12:14.780Z,100912.00
2018-09-24T10:14:48.560Z,100917.00
2018-09-24T10:17:22.308Z,100917.00
2018-09-24T10:19:56.050Z,100925.00
2018-09-24T10:22:29.888Z,100931.00
2018-09-24T10:25:03.676Z,100961.00
2018-09-24T10:27:37.562Z,100913.00
2018-09-24T10:30:12.270Z,100919.00
2018-09-24T10:32:46.097Z,100924.00
2018-09-24T10:35:19.920Z,100927.00
2018-09-24T10:37:53.760Z,100933.00
2018-09-24T10:40:27.524Z,100923.00
2018-09-24T10:43:01.296Z,100909.00
2018-09-24T10:45:34.962Z,100918.00
2018-09-24T10:48:08.784Z,100932.00
2018-09-24T10:50:42.344Z,100926.00
2018-09-24T10:53:16.362Z,100891.00
2018-09-24T10:55:50.164Z,100890.00
2018-09-24T10:58:23.922Z,100904.00
2018-09-24T11:00:57.547Z,100915.00
2018-09-24T11:03:31.574Z,100922.00
2018-09-24T11:06:05.331Z,100917.00
2018-09-24T11:08:39.093Z,100913.00
2018-09-24T11:11:12.863Z,100901.00
2018-09-24T11:13:46.693Z,100897.00
2018-09-24T11:16:20.587Z,100888.00
2018-09-24T11:18:54.341Z,100889.00
2018-09-24T11:21:28.172Z,100885.00
2018-09-24T11:24:01.934Z,100861.00
2018-09-24T11:26:35.538Z,100859.00
2018-09-24T11:29:10.133Z,100875.00
2018-09-24T11:31:43.978Z,100864.00
2018-09-24T11:34:17.919Z,100859.00
2018-09-24T11:36:51.680Z,100860.00
2018-09-24T11:39:25.442Z,100857.00
2018-09-24T11:41:59.242Z,100842.00
2018-09-24T11:44:33.138Z,100858.00
2018-09-24T11:47:06.973Z,100853.00
2018-09-24T11:49:40.697Z,100853.00
2018-09-24T11:52:14.477Z,100853.00
2018-09-24T11:54:48.220Z,100849.00
2018-09-24T11:57:21.971Z,100851.00
2018-09-24T11:59:55.795Z,100841.00
2018-09-24T12:02:30.082Z,100833.00
2018-09-24T12:05:03.821Z,100835.00
2018-09-24T12:07:37.588Z,100828.00
2018-09-24T12:10:11.510Z,100827.00
2018-09-24T12:12:45.239Z,100825.00
2018-09-24T12:15:19.042Z,100828.00
2018-09-24T12:17:52.770Z,100829.00
2018-09-24T12:20:26.701Z,100834.00
2018-09-24T12:23:00.445Z,100831.00
2018-09-24T12:25:33.988Z,100836.00
2018-09-24T12:28:07.886Z,100828.00
2018-09-24T12:30:41.519Z,100835.00
2018-09-24T12:33:15.140Z,100838.00
2018-09-24T12:35:49.223Z,100846.00
2018-09-24T12:38:22.965Z,100848.00
2018-09-24T12:40:56.726Z,100848.00
2018-09-24T12:43:30.537Z,100853.00
2018-09-24T12:46:04.233Z,100853.00
2018-09-24T12:48:38.613Z,100856.00
2018-09-24T12:51:13.045Z,100867.00
2018-09-24T12:53:46.939Z,100859.00
2018-09-24T12:56:20.590Z,100873.00
2018-09-24T12:58:54.382Z,100867.00
2018-09-24T13:01:28.273Z,100852.00
2018-09-24T13:04:01.906Z,100834.00
2018-09-24T13:06:35.614Z,100842.00
2018-09-24T13:09:10.822Z,100841.00
2018-09-24T13:11:44.686Z,100845.00
2018-09-24T13:14:18.394Z,100848.00
2018-09-24T13:16:52.146Z,100843.00
2018-09-24T13:19:26.084Z,100828.00
2018-09-24T13:21:59.890Z,100840.00
2018-09-24T13:24:33.622Z,100822.00
2018-09-24T13:27:07.473Z,100826.00
2018-09-24T13:29:41.127Z,100832.00
2018-09-24T13:32:14.931Z,100832.00
2018-09-24T13:34:48.824Z,100832.00
2018-09-24T13:37:22.644Z,100833.00
2018-09-24T13:39:56.284Z,100832.00
2018-09-24T13:42:30.074Z,100823.00
2018-09-24T13:45:04.000Z,100824.00
2018-09-24T13:47:38.116Z,100829.00
2018-09-24T13:50:12.179Z,100831.00
2018-09-24T13:52:45.896Z,100840.00
2018-09-24T13:55:19.648Z,100850.00
2018-09-24T13:57:53.357Z,100851.00
2018-09-24T14:00:27.168Z,100830.00
2018-09-24T14:03:00.966Z,100817.00
2018-09-24T14:05:34.735Z,100844.00
2018-09-24T14:08:08.502Z,100843.00
2018-09-24T14:10:42.212Z,100824.00
2018-09-24T14:13:16.055Z,100821.00
2018-09-24T14:15:49.839Z,100830.00
2018-09-24T14:18:23.618Z,100831.00
2018-09-24T14:20:57.425Z,100835.00
2018-09-24T14:23:31.917Z,100823.00
2018-09-24T14:26:06.679Z,100821.00
2018-09-24T14:28:40.352Z,100823.00
2018-09-24T14:31:14.075Z,100826.00
2018-09-24T14:33:47.906Z,100821.00
2018-09-24T14:36:21.748Z,100818.00
2018-09-24T14:38:55.599Z,100822.00
2018-09-24T14:41:29.337Z,100819.00
2018-09-24T14:44:03.080Z,100820.00
2018-09-24T14:46:36.792Z,100824.00
2018-09-24T14:49:16.249Z,100815.00
2018-09-24T14:51:50.157Z,100813.00
2018-09-24T14:54:23.947Z,100814.00
2018-09-24T14:56:57.826Z,100815.00
2018-09-24T14:59:31.666Z,100823.00
2018-09-24T15:02:05.364Z,100827.00
2018-09-24T15:04:39.585Z,100818.00
2018-09-24T15:07:13.477Z,100830.00
2018-09-24T15:09:48.525Z,100824.00
2018-09-24T15:12:22.372Z,100825.00
2018-09-24T15:14:56.129Z,100827.00
2018-09-24T15:17:29.886Z,100832.00
2018-09-24T15:20:03.848Z,100835.00
2018-09-24T15:22:37.881Z,100831.00
2018-09-24T15:25:11.787Z,100843.00
2018-09-24T15:27:45.636Z,100833.00
2018-09-24T15:30:19.453Z,100827.00
2018-09-24T15:32:53.412Z,100826.00
2018-09-24T15:35:27.157Z,100832.00
2018-09-24T15:38:01.007Z,100825.00
2018-09-24T15:40:34.820Z,100823.00
2018-09-24T15:43:10.407Z,100823.00
2018-09-24T15:45:44.179Z,100821.00
2018-09-24T15:48:18.011Z,100823.00
2018-09-24T15:50:51.865Z,100823.00
2018-09-24T15:53:25.683Z,100812.00
2018-09-24T15:55:59.503Z,100821.00
2018-09-24T15:58:33.225Z,100825.00
2018-09-24T16:01:07.215Z,100828.00
2018-09-24T16:03:40.946Z,100823.00
2018-09-24T16:06:14.883Z,100823.00
2018-09-24T16:08:48.753Z,100824.00
2018-09-24T16:11:22.732Z,100831.00
2018-09-24T16:13:56.436Z,100826.00
2018-09-24T16:16:31.085Z,100830.00
2018-09-24T16:19:04.789Z,100834.00
2018-09-24T16:21:38.510Z,100832.00
2018-09-24T16:24:12.223Z,100838.00
2018-09-24T16:26:45.979Z,100846.00
2018-09-24T16:29:19.968Z,100835.00
2018-09-24T16:31:53.672Z,100847.00
2018-09-24T16:34:27.557Z,100849.00
2018-09-24T16:37:01.363Z,100861.00
2018-09-24T16:39:35.688Z,100867.00
2018-09-24T16:42:09.376Z,100868.00
2018-09-24T16:44:44.113Z,100870.00
2018-09-24T16:47:17.868Z,100869.00
2018-09-24T16:49:51.507Z,100871.00
2018-09-24T16:52:25.355Z,100881.00
2018-09-24T16:54:59.183Z,100881.00
2018-09-24T16:57:33.499Z,100886.00
2018-09-24T17:00:07.526Z,100890.00
2018-09-24T17:02:41.316Z,100891.00
2018-09-24T17:05:15.115Z,100900.00
2018-09-24T17:07:48.808Z,100902.00
2018-09-24T17:10:22.549Z,100906.00
2018-09-24T17:12:56.333Z,100906.00
2018-09-24T17:15:30.103Z,100914.00
2018-09-24T17:18:03.908Z,100916.00
2018-09-24T17:20:37.668Z,100928.00
2018-09-24T17:23:11.677Z,100935.00
2018-09-24T17:25:45.467Z,100940.00
2018-09-24T17:28:19.345Z,100950.00
2018-09-24T17:30:53.849Z,100957.00
2018-09-24T17:33:28.066Z,100966.00
2018-09-24T17:36:01.789Z,100970.00
2018-09-24T17:38:35.557Z,100973.00
2018-09-24T17:41:09.444Z,100979.00
2018-09-24T17:43:43.414Z,100985.00
2018-09-24T17:46:17.227Z,100986.00
2018-09-24T17:48:50.953Z,100990.00
2018-09-24T17:51:25.242Z,100994.00
2018-09-24T17:53:58.888Z,100999.00
2018-09-24T17:56:32.781Z,101009.00
2018-09-24T17:59:06.414Z,101011.00
2018-09-24T18:01:40.331Z,101021.00
2018-09-24T18:04:14.331Z,101025.00
2018-09-24T18:06:48.179Z,101028.00
2018-09-24T18:09:22.739Z,101035.00
2018-09-24T18:11:56.462Z,101040.00
2018-09-24T18:14:30.556Z,101041.00
2018-09-24T18:17:04.646Z,101049.00
2018-09-24T18:19:39.445Z,101051.00
2018-09-24T18:22:13.302Z,101048.00
2018-09-24T18:24:47.187Z,101052.00
2018-09-24T18:27:21.225Z,101062.00
2018-09-24T18:29:55.047Z,101063.00
2018-09-24T18:32:28.754Z,101068.00
2018-09-24T18:35:02.583Z,101073.00
2018-09-24T18:37:36.425Z,101075.00
2018-09-24T18:40:10.431Z,101082.00
2018-09-24T18:42:44.394Z,101085.00
2018-09-24T18:45:18.095Z,101087.00
2018-09-24T18:47:51.913Z,101092.00
2018-09-24T18:50:25.902Z,101097.00
2018-09-24T18:52:59.675Z,101103.00
2018-09-24T18:55:33.483Z,101107.00
2018-09-24T18:58:07.338Z,101110.00
2018-09-24T19:00:41.253Z,101111.00
2018-09-24T19:03:15.039Z,101114.00
2018-09-24T19:05:48.794Z,101117.00
2018-09-24T19:08:22.493Z,101118.00
2018-09-24T19:10:56.236Z,101123.00
2018-09-24T19:13:30.016Z,101125.00
2018-09-24T19:16:03.774Z,101131.00
2018-09-24T19:18:37.448Z,101135.00
2018-09-24T19:21:11.309Z,101135.00
2018-09-24T19:23:45.502Z,101143.00
2018-09-24T19:26:19.333Z,101142.00
2018-09-24T19:28:53.124Z,101152.00
2018-09-24T19:31:27.036Z,101163.00
2018-09-24T19:34:00.954Z,101173.00
2018-09-24T19:36:34.834Z,101188.00
2018-09-24T19:39:08.848Z,101188.00
2018-09-24T19:41:42.590Z,101187.00
2018-09-24T19:44:16.242Z,101191.00
2018-09-24T19:46:49.993Z,101188.00
2018-09-24T19:49:23.770Z,101183.00
2018-09-24T19:51:57.669Z,101176.00
2018-09-24T19:54:31.512Z,101182.00
2018-09-24T19:57:05.067Z,101185.00
2018-09-24T19:59:39.099Z,101193.00
2018-09-24T20:02:12.906Z,101197.00
2018-09-24T20:04:46.892Z,101201.00
2018-09-24T20:07:20.705Z,101200.00
2018-09-24T20:09:54.457Z,101201.00
2018-09-24T20:12:28.193Z,101204.00
2018-09-24T20:15:07.028Z,101208.00
2018-09-24T20:17:41.104Z,101211.00
2018-09-24T20:20:14.957Z,101217.00
2018-09-24T20:22:48.783Z,101218.00
2018-09-24T20:25:22.523Z,101220.00
2018-09-24T20:27:56.395Z,101214.00
2018-09-24T20:30:31.199Z,101221.00
2018-09-24T20:33:05.160Z,101222.00
2018-09-24T20:35:38.900Z,101227.00
2018-09-24T20:38:12.710Z,101225.00
2018-09-24T20:40:46.519Z,101226.00
2018-09-24T20:43:20.591Z,101225.00
2018-09-24T20:45:54.434Z,101225.00
2018-09-24T20:48:28.184Z,101221.00
2018-09-24T20:51:01.914Z,101223.00
2018-09-24T20:53:35.918Z,101227.00
2018-09-24T20:56:09.944Z,101225.00
2018-09-24T20:58:43.729Z,101226.00
2018-09-24T21:01:17.301Z,101233.00
2018-09-24T21:03:51.222Z,101233.00
2018-09-24T21:06:25.032Z,101233.00
2018-09-24T21:08:58.815Z,101240.00
2018-09-24T21:11:32.599Z,101248.00
2018-09-24T21:14:06.511Z,101250.00
2018-09-24T21:16:40.078Z,101250.00
2018-09-24T21:19:13.839Z,101255.00
2018-09-24T21:21:47.778Z,101259.00
2018-09-24T21:24:21.447Z,101264.00
2018-09-24T21:26:55.087Z,101263.00
2018-09-24T21:29:28.868Z,101267.00
2018-09-24T21:32:02.659Z,101271.00
2018-09-24T21:34:36.511Z,101272.00
2018-09-24T21:37:10.277Z,101273.00
2018-09-24T21:39:44.090Z,101272.00
2018-09-24T21:42:17.692Z,101273.00
2018-09-24T21:44:52.249Z,101282.00
2018-09-24T21:47:26.096Z,101290.00
2018-09-24T21:50:00.009Z,101292.00
2018-09-24T21:52:33.859Z,101291.00
2018-09-24T21:55:07.615Z,101298.00
2018-09-24T21:57:41.253Z,101302.00
2018-09-24T22:00:15.070Z,101301.00
2018-09-24T22:02:48.802Z,101299.00
2018-09-24T22:05:22.795Z,101300.00
2018-09-24T22:07:56.641Z,101294.00
2018-09-24T22:10:30.357Z,101307.00
2018-09-24T22:13:04.079Z,101312.00
2018-09-24T22:15:37.958Z,101322.00
2018-09-24T22:18:11.668Z,101319.00
2018-09-24T22:20:45.391Z,101325.00
2018-09-24T22:23:19.154Z,101330.00
2018-09-24T22:25:53.456Z,101328.00
2018-09-24T22:28:27.212Z,101338.00
2018-09-24T22:31:01.060Z,101338.00
2018-09-24T22:33:34.891Z,101341.00
2018-09-24T22:36:08.600Z,101344.00
2018-09-24T22:38:42.352Z,101349.00
2018-09-24T22:41:16.289Z,101349.00
2018-09-24T22:43:49.991Z,101355.00
2018-09-24T22:46:23.683Z,101357.00
2018-09-24T22:48:57.353Z,101352.00
2018-09-24T22:51:31.016Z,101355.00
2018-09-24T22:54:04.844Z,101352.00
2018-09-24T22:56:38.713Z,101349.00
2018-09-24T22:59:12.416Z,101355.00
2018-09-24T23:01:46.226Z,101353.00
2018-09-24T23:04:19.981Z,101360.00
2018-09-24T23:06:53.795Z,101359.00
2018-09-24T23:09:27.627Z,101366.00
2018-09-24T23:12:01.463Z,101364.00
2018-09-24T23:14:35.284Z,101364.00
2018-09-24T23:17:09.535Z,101364.00
2018-09-24T23:19:43.538Z,101363.00
2018-09-24T23:22:17.149Z,101369.00
2018-09-24T23:24:51.177Z,101371.00
2018-09-24T23:27:25.756Z,101372.00
2018-09-24T23:29:59.516Z,101367.00
2018-09-24T23:32:33.374Z,101376.00
2018-09-24T23:35:07.099Z,101369.00
2018-09-24T23:37:40.804Z,101374.00
2018-09-24T23:40:15.254Z,101371.00
2018-09-24T23:42:48.906Z,101373.00
2018-09-24T23:45:22.591Z,101371.00
2018-09-24T23:47:56.332Z,101376.00
2018-09-24T23:50:30.037Z,101378.00
2018-09-24T23:53:03.710Z,101378.00
2018-09-24T23:55:37.457Z,101379.00
2018-09-24T23:58:11.903Z,101384.00
